Time;durP1;ratioP1;P1;durP2;ratioP2;P2;SDS_P1;SDS_P2;PMS_P1;PMS_P2;Temp;Humidity;BMP_temperature;BMP_pressure;BME280_temperature;BME280_humidity;BME280_pressure;Samples;Min_cycle;Max_cycle;Signal;HPM_P1;HPM_P2
2021/01/06 00:00:31;;;;;;;17.85;9.90;;;;;;;2.68;nan;95906.31;4885266;29;20680;-68
2021/01/06 00:02:58;;;;;;;21.45;10.30;;;;;;;2.78;nan;95906.78;4882833;29;20565;-67
2021/01/06 00:05:26;;;;;;;19.10;10.45;;;;;;;2.75;nan;95905.16;4879729;29;20232;-68
2021/01/06 00:07:53;;;;;;;20.00;9.52;;;;;;;2.82;nan;95904.00;4885665;29;20212;-67
2021/01/06 00:10:23;;;;;;;27.88;11.45;;;;;;;2.82;nan;95904.00;4883229;29;20761;-68
2021/01/06 00:12:50;;;;;;;22.73;11.32;;;;;;;2.81;nan;95915.16;4880228;29;20324;-68
2021/01/06 00:15:23;;;;;;;19.08;10.70;;;;;;;2.81;nan;95912.59;4880723;29;20230;-68
2021/01/06 00:17:50;;;;;;;24.13;11.82;;;;;;;2.76;nan;95914.53;4880119;29;20625;-68
2021/01/06 00:20:18;;;;;;;23.33;11.05;;;;;;;2.80;nan;95910.91;4879733;29;20742;-67
2021/01/06 00:22:45;;;;;;;21.95;10.68;;;;;;;2.84;nan;95909.06;4879381;29;20624;-68
2021/01/06 00:25:19;;;;;;;19.95;9.98;;;;;;;2.84;nan;95914.19;4878031;29;20675;-67
2021/01/06 00:27:46;;;;;;;20.13;10.48;;;;;;;2.75;nan;95914.59;4883544;29;20752;-67
2021/01/06 00:30:22;;;;;;;16.42;9.88;;;;;;;2.79;nan;95913.56;4877014;29;20234;-68
2021/01/06 00:32:56;;;;;;;24.17;11.40;;;;;;;2.75;nan;95914.59;4883469;29;20512;-67
2021/01/06 00:35:27;;;;;;;14.75;8.43;;;;;;;2.75;nan;95915.44;4882006;29;20565;-68
2021/01/06 00:37:57;;;;;;;20.27;9.90;;;;;;;2.73;nan;95919.78;4882595;29;20654;-68
2021/01/06 00:40:30;;;;;;;17.02;8.98;;;;;;;2.78;nan;95920.44;4882549;29;20617;-67
2021/01/06 00:42:58;;;;;;;21.80;10.35;;;;;;;2.66;nan;95917.56;4882721;29;20597;-68
2021/01/06 00:45:28;;;;;;;21.50;10.60;;;;;;;2.58;nan;95912.72;4882493;29;20363;-68
2021/01/06 00:47:58;;;;;;;21.80;9.52;;;;;;;2.56;nan;95914.53;4884388;29;20648;-67
2021/01/06 00:50:29;;;;;;;19.33;10.88;;;;;;;2.61;nan;95912.63;4881569;29;21006;-68
2021/01/06 00:52:58;;;;;;;17.23;9.25;;;;;;;2.54;nan;95908.63;4885020;29;20296;-68
2021/01/06 00:55:26;;;;;;;19.77;9.38;;;;;;;2.52;nan;95900.19;4882918;29;20307;-68
2021/01/06 00:57:54;;;;;;;21.92;10.25;;;;;;;2.50;nan;95908.84;4890071;29;20814;-69
2021/01/06 01:00:28;;;;;;;18.40;10.25;;;;;;;2.52;nan;95902.75;4888579;29;20258;-68
2021/01/06 01:02:59;;;;;;;16.88;9.30;;;;;;;2.42;nan;95908.31;4884483;29;21073;-67
2021/01/06 01:05:28;;;;;;;19.50;9.50;;;;;;;2.43;nan;95910.81;4877915;29;20633;-67
2021/01/06 01:07:55;;;;;;;18.85;9.52;;;;;;;2.44;nan;95914.22;4887164;29;20305;-66
2021/01/06 01:10:29;;;;;;;21.63;9.02;;;;;;;2.42;nan;95916.84;4885081;29;20225;-68
2021/01/06 01:12:57;;;;;;;18.05;9.10;;;;;;;2.51;nan;95913.88;4883817;29;20748;-69
2021/01/06 01:15:27;;;;;;;19.50;9.73;;;;;;;2.45;nan;95914.16;4881938;29;20258;-67
2021/01/06 01:17:57;;;;;;;21.00;8.65;;;;;;;2.37;nan;95911.06;4884703;29;20210;-67
2021/01/06 01:20:26;;;;;;;14.27;7.90;;;;;;;2.42;nan;95918.59;4884516;29;20226;-68
2021/01/06 01:22:58;;;;;;;18.10;8.70;;;;;;;2.33;nan;95913.81;4885436;29;20561;-67
2021/01/06 01:25:27;;;;;;;14.40;8.50;;;;;;;2.35;nan;95918.00;4884222;29;20806;-68
2021/01/06 01:27:54;;;;;;;19.10;8.80;;;;;;;2.38;nan;95912.75;4882359;29;20285;-68
2021/01/06 01:30:27;;;;;;;19.23;9.80;;;;;;;2.35;nan;95919.75;4884010;29;20233;-69
2021/01/06 01:32:56;;;;;;;17.77;7.90;;;;;;;2.36;nan;95919.66;4882533;29;20714;-67
2021/01/06 01:35:32;;;;;;;16.65;8.38;;;;;;;2.40;nan;95920.38;4885317;29;20230;-68
2021/01/06 01:38:04;;;;;;;17.10;7.95;;;;;;;2.39;nan;95924.69;4884553;29;20688;-69
2021/01/06 01:40:34;;;;;;;15.77;7.18;;;;;;;2.36;nan;95924.78;4883218;29;20697;-69
2021/01/06 01:43:08;;;;;;;14.40;8.27;;;;;;;2.35;nan;95928.25;4882917;29;20665;-68
2021/01/06 01:46:01;;;;;;;14.02;7.75;;;;;;;2.39;nan;95928.97;4882353;29;20875;-68
2021/01/06 01:48:31;;;;;;;16.25;8.95;;;;;;;2.47;nan;95926.91;4879222;29;20213;-68
2021/01/06 01:51:04;;;;;;;15.45;8.38;;;;;;;2.46;nan;95931.22;4887014;29;20206;-69
2021/01/06 01:53:39;;;;;;;15.45;7.70;;;;;;;2.46;nan;95931.22;4879157;29;20656;-69
2021/01/06 01:56:10;;;;;;;15.23;7.97;;;;;;;2.47;nan;95929.47;4882287;29;20267;-69
2021/01/06 01:58:39;;;;;;;17.00;8.45;;;;;;;2.51;nan;95929.28;4883509;29;20201;-68
2021/01/06 02:01:08;;;;;;;12.05;6.68;;;;;;;2.51;nan;95928.47;4883218;29;20300;-68
2021/01/06 02:03:41;;;;;;;12.75;7.05;;;;;;;2.44;nan;95920.16;4883175;29;20660;-68
2021/01/06 02:06:15;;;;;;;12.55;7.22;;;;;;;2.48;nan;95921.72;4881580;29;20206;-67
2021/01/06 02:08:51;;;;;;;14.75;6.95;;;;;;;2.53;nan;95921.53;4881123;29;20233;-67
2021/01/06 02:11:23;;;;;;;16.67;7.43;;;;;;;2.52;nan;95919.88;4880388;29;20662;-68
2021/01/06 02:13:54;;;;;;;11.73;7.25;;;;;;;2.47;nan;95920.06;4888016;29;20723;-68
2021/01/06 02:16:31;;;;;;;17.23;8.40;;;;;;;2.54;nan;95918.91;4883730;29;20218;-68
2021/01/06 02:18:58;;;;;;;12.40;6.97;;;;;;;2.47;nan;95916.66;4881298;29;20292;-68
2021/01/06 02:21:27;;;;;;;16.65;8.07;;;;;;;2.50;nan;95922.50;4883481;29;20657;-68
2021/01/06 02:23:58;;;;;;;11.77;6.35;;;;;;;2.53;nan;95912.09;4882649;29;20872;-68
2021/01/06 02:26:28;;;;;;;15.68;7.70;;;;;;;2.52;nan;95914.72;4884408;29;20238;-68
2021/01/06 02:28:56;;;;;;;15.68;8.23;;;;;;;2.50;nan;95907.09;4880598;29;20622;-68
2021/01/06 02:31:23;;;;;;;11.98;6.88;;;;;;;2.41;nan;95911.75;4881565;29;20284;-69
2021/01/06 02:33:52;;;;;;;18.08;8.35;;;;;;;2.46;nan;95907.28;4881269;29;20385;-68
2021/01/06 02:36:25;;;;;;;14.35;7.95;;;;;;;2.46;nan;95914.97;4882042;29;20999;-67
2021/01/06 02:38:55;;;;;;;12.55;7.43;;;;;;;2.45;nan;95913.31;4879877;29;20622;-67
2021/01/06 02:41:22;;;;;;;12.07;7.10;;;;;;;2.38;nan;95912.75;4881638;29;20617;-68
2021/01/06 02:43:49;;;;;;;13.55;7.88;;;;;;;2.39;nan;95904.16;4883852;29;20697;-68
2021/01/06 02:46:24;;;;;;;14.95;7.95;;;;;;;2.47;nan;95906.38;4883867;29;20203;-68
2021/01/06 02:48:57;;;;;;;14.30;7.43;;;;;;;2.45;nan;95903.91;4883841;29;20226;-66
2021/01/06 02:51:35;;;;;;;12.32;6.95;;;;;;;2.48;nan;95903.75;4883140;29;20533;-67
2021/01/06 02:54:07;;;;;;;16.00;7.72;;;;;;;2.43;nan;95907.41;4880168;29;20291;-67
2021/01/06 02:56:36;;;;;;;14.43;8.45;;;;;;;2.42;nan;95896.31;4881928;29;20883;-68
2021/01/06 02:59:07;;;;;;;17.15;7.70;;;;;;;2.49;nan;95894.34;4883106;29;20330;-68
2021/01/06 03:01:38;;;;;;;15.10;8.10;;;;;;;2.44;nan;95896.25;4881910;29;20735;-67
2021/01/06 03:04:07;;;;;;;13.45;7.63;;;;;;;2.40;nan;95899.81;4880194;29;20768;-68
2021/01/06 03:06:43;;;;;;;13.55;8.00;;;;;;;2.38;nan;95888.78;4882489;29;20601;-68
2021/01/06 03:09:29;;;;;;;11.88;7.40;;;;;;;2.44;nan;95897.06;4879195;29;20267;-67
2021/01/06 03:11:59;;;;;;;19.13;7.82;;;;;;;2.48;nan;95898.63;4885857;29;20590;-68
2021/01/06 03:14:31;;;;;;;14.52;7.75;;;;;;;2.46;nan;95895.28;4876876;29;20233;-68
2021/01/06 03:17:01;;;;;;;15.85;7.70;;;;;;;2.39;nan;95893.88;4883499;29;20645;-68
2021/01/06 03:19:32;;;;;;;12.20;6.57;;;;;;;2.39;nan;95891.31;4877220;29;20724;-68
2021/01/06 03:22:05;;;;;;;14.93;7.90;;;;;;;2.31;nan;95889.94;4882771;29;20209;-68
2021/01/06 03:24:38;;;;;;;14.18;7.25;;;;;;;2.28;nan;95890.91;4879673;29;20229;-68
2021/01/06 03:27:08;;;;;;;16.08;7.40;;;;;;;2.39;nan;95899.00;4880325;29;20256;-68
2021/01/06 03:29:36;;;;;;;10.68;6.10;;;;;;;2.32;nan;95879.63;4880832;29;20692;-69
2021/01/06 03:32:09;;;;;;;13.20;6.80;;;;;;;2.36;nan;95893.16;4877739;29;20205;-68
2021/01/06 03:34:47;;;;;;;13.15;7.63;;;;;;;2.26;nan;95889.28;4881723;29;20479;-67
2021/01/06 03:37:23;;;;;;;17.40;7.32;;;;;;;2.30;nan;95884.00;4880840;29;20201;-67
2021/01/06 03:40:02;;;;;;;13.88;7.43;;;;;;;2.23;nan;95890.28;4880514;29;20345;-68
2021/01/06 03:42:29;;;;;;;12.52;7.90;;;;;;;2.29;nan;95897.69;4878588;29;20296;-68
2021/01/06 03:44:56;;;;;;;17.90;7.50;;;;;;;2.36;nan;95888.84;4880049;29;20320;-68
2021/01/06 03:47:27;;;;;;;13.15;8.38;;;;;;;2.34;nan;95882.94;4885093;29;20500;-68
2021/01/06 03:50:03;;;;;;;14.05;7.70;;;;;;;2.31;nan;95883.09;4882616;29;20225;-68
2021/01/06 03:53:03;;;;;;;15.40;7.40;;;;;;;2.30;nan;95878.00;4876885;29;20228;-68
2021/01/06 03:55:51;;;;;;;15.18;7.15;;;;;;;2.31;nan;95875.38;4876363;29;20864;-68
2021/01/06 03:58:48;;;;;;;13.43;6.68;;;;;;;2.17;nan;95875.13;4882677;29;20836;-68
2021/01/06 04:01:41;;;;;;;14.50;6.85;;;;;;;2.04;nan;95881.66;4884095;29;20811;-68
2021/01/06 04:04:15;;;;;;;9.80;6.05;;;;;;;2.08;nan;95866.97;4881070;29;20224;-68
2021/01/06 04:06:45;;;;;;;9.65;5.55;;;;;;;2.21;nan;95868.13;4886975;29;20308;-68
2021/01/06 04:09:21;;;;;;;8.00;5.68;;;;;;;2.25;nan;95870.50;4882389;29;20590;-69
2021/01/06 04:12:01;;;;;;;7.60;4.53;;;;;;;2.18;nan;95875.94;4883624;29;20210;-68
2021/01/06 04:14:31;;;;;;;12.23;4.97;;;;;;;2.08;nan;95878.06;4879376;29;20612;-68
2021/01/06 04:17:15;;;;;;;10.60;4.85;;;;;;;2.09;nan;95872.03;4886026;29;20731;-68
2021/01/06 04:19:46;;;;;;;9.65;5.40;;;;;;;2.14;nan;95872.66;4882253;29;20690;-68
2021/01/06 04:22:14;;;;;;;8.32;4.72;;;;;;;2.14;nan;95869.28;4885259;29;20686;-68
2021/01/06 04:24:45;;;;;;;13.68;5.55;;;;;;;2.20;nan;95874.97;4884344;29;20225;-68
2021/01/06 04:27:19;;;;;;;9.15;5.47;;;;;;;2.28;nan;95872.13;4883953;29;20691;-68
2021/01/06 04:29:46;;;;;;;10.70;5.32;;;;;;;2.27;nan;95870.44;4884323;29;20235;-68
2021/01/06 04:32:13;;;;;;;10.07;6.32;;;;;;;2.14;nan;95866.72;4883649;29;20597;-68
2021/01/06 04:34:40;;;;;;;7.93;5.68;;;;;;;2.21;nan;95863.81;4883303;29;20378;-68
2021/01/06 04:37:07;;;;;;;12.55;6.28;;;;;;;2.26;nan;95871.31;4884206;29;20323;-68
2021/01/06 04:39:34;;;;;;;10.60;6.53;;;;;;;2.20;nan;95872.41;4884619;29;20235;-68
2021/01/06 04:42:05;;;;;;;9.25;5.82;;;;;;;2.18;nan;95868.25;4885087;29;20288;-68
2021/01/06 04:44:58;;;;;;;10.85;6.57;;;;;;;2.21;nan;95871.50;4880510;29;20523;-68
2021/01/06 04:47:57;;;;;;;12.82;6.90;;;;;;;2.21;nan;95871.50;4892003;29;20517;-68
2021/01/06 04:50:52;;;;;;;13.13;7.00;;;;;;;2.22;nan;95868.03;4886982;29;20326;-68
2021/01/06 04:53:30;;;;;;;14.27;7.03;;;;;;;2.19;nan;95865.63;4880291;29;20240;-66
2021/01/06 04:56:15;;;;;;;12.05;6.40;;;;;;;2.18;nan;95863.97;4891052;29;20884;-68
2021/01/06 04:58:53;;;;;;;14.77;7.53;;;;;;;2.22;nan;95873.19;4882630;29;20201;-67
2021/01/06 05:01:48;;;;;;;14.95;7.35;;;;;;;2.21;nan;95874.09;4893415;29;20609;-67
2021/01/06 05:04:36;;;;;;;13.23;7.57;;;;;;;2.22;nan;95865.47;4879747;29;20224;-67
2021/01/06 05:07:06;;;;;;;17.25;8.55;;;;;;;2.23;nan;95874.88;4882638;29;20735;-67
2021/01/06 05:09:43;;;;;;;13.95;7.32;;;;;;;2.17;nan;95870.00;4887966;29;20249;-67
2021/01/06 05:12:23;;;;;;;14.68;7.97;;;;;;;2.11;nan;95872.81;4883130;29;20675;-67
2021/01/06 05:14:56;;;;;;;19.67;8.57;;;;;;;2.18;nan;95869.09;4881215;29;20283;-66
2021/01/06 05:17:24;;;;;;;14.50;7.55;;;;;;;2.17;nan;95877.69;4883829;29;20273;-67
2021/01/06 05:19:51;;;;;;;19.60;7.90;;;;;;;2.17;nan;95880.25;4882143;29;20257;-67
2021/01/06 05:22:19;;;;;;;17.25;7.72;;;;;;;2.20;nan;95874.97;4882724;29;20234;-67
2021/01/06 05:24:49;;;;;;;14.90;6.78;;;;;;;2.18;nan;95881.06;4882936;29;20308;-67
2021/01/06 05:27:20;;;;;;;14.93;7.75;;;;;;;2.10;nan;95871.13;4879955;29;20617;-67
2021/01/06 05:29:52;;;;;;;12.82;7.32;;;;;;;2.14;nan;95877.78;4883314;29;20556;-66
2021/01/06 05:32:28;;;;;;;13.95;7.75;;;;;;;2.17;nan;95882.81;4885094;29;20633;-67
2021/01/06 05:34:58;;;;;;;16.67;6.72;;;;;;;2.18;nan;95879.34;4882656;29;20717;-67
2021/01/06 05:37:25;;;;;;;12.63;7.13;;;;;;;2.15;nan;95884.59;4883958;29;20601;-68
2021/01/06 05:39:58;;;;;;;12.60;6.75;;;;;;;2.15;nan;95876.91;4883885;29;20593;-67
2021/01/06 05:42:32;;;;;;;10.10;5.55;;;;;;;2.12;nan;95881.31;4884023;29;20659;-68
2021/01/06 05:45:00;;;;;;;9.02;5.47;;;;;;;2.09;nan;95884.03;4885199;29;20943;-68
2021/01/06 05:47:33;;;;;;;14.20;6.43;;;;;;;2.18;nan;95889.63;4885475;29;20233;-68
2021/01/06 05:50:15;;;;;;;11.68;5.90;;;;;;;2.20;nan;95885.25;4882915;29;20347;-69
2021/01/06 05:52:44;;;;;;;11.63;6.05;;;;;;;2.04;nan;95871.38;4879704;29;20593;-68
2021/01/06 05:55:17;;;;;;;10.80;5.95;;;;;;;2.14;nan;95888.06;4881428;29;20906;-68
2021/01/06 05:57:51;;;;;;;14.25;6.60;;;;;;;2.13;nan;95890.72;4882203;29;20261;-68
2021/01/06 06:00:39;;;;;;;9.82;5.70;;;;;;;2.15;nan;95888.91;4875619;29;20359;-70
2021/01/06 06:03:35;;;;;;;9.95;5.85;;;;;;;2.12;nan;95879.59;4883047;29;20685;-69
2021/01/06 06:06:20;;;;;;;9.85;5.30;;;;;;;2.19;nan;95886.16;4881606;29;20244;-67
2021/01/06 06:08:52;;;;;;;10.18;5.63;;;;;;;2.04;nan;95897.03;4880468;29;20504;-68
2021/01/06 06:11:49;;;;;;;10.63;5.88;;;;;;;2.13;nan;95890.72;4883105;29;20713;-67
2021/01/06 06:14:49;;;;;;;9.82;5.88;;;;;;;2.17;nan;95902.50;4881703;29;20310;-68
2021/01/06 06:17:25;;;;;;;15.10;6.55;;;;;;;2.27;nan;95898.69;4884101;29;20248;-68
2021/01/06 06:20:20;;;;;;;11.25;6.47;;;;;;;2.20;nan;95892.94;4883302;29;20229;-68
2021/01/06 06:22:56;;;;;;;9.80;5.35;;;;;;;2.08;nan;95887.50;4883364;29;20201;-68
2021/01/06 06:25:27;;;;;;;11.27;6.38;;;;;;;2.18;nan;95889.63;4881657;29;20304;-68
2021/01/06 06:28:07;;;;;;;16.08;7.03;;;;;;;2.21;nan;95894.63;4880775;29;20597;-67
2021/01/06 06:30:38;;;;;;;15.52;6.25;;;;;;;2.17;nan;95894.81;4882336;29;20279;-68
2021/01/06 06:33:35;;;;;;;9.75;5.93;;;;;;;2.18;nan;95897.31;4882014;29;20213;-68
2021/01/06 06:36:11;;;;;;;11.73;6.55;;;;;;;2.20;nan;95905.78;4879545;29;20233;-68
2021/01/06 06:38:40;;;;;;;10.13;5.40;;;;;;;2.19;nan;95905.84;4879770;29;20584;-68
2021/01/06 06:41:12;;;;;;;10.15;6.45;;;;;;;2.20;nan;95902.41;4882067;29;20202;-68
2021/01/06 06:43:42;;;;;;;15.52;6.25;;;;;;;2.09;nan;95905.41;4881575;29;20712;-68
2021/01/06 06:46:32;;;;;;;14.63;6.03;;;;;;;2.09;nan;95912.25;4883120;29;20500;-68
2021/01/06 06:49:20;;;;;;;16.17;7.82;;;;;;;1.96;nan;95913.63;4881310;29;20349;-68
2021/01/06 06:51:55;;;;;;;13.88;6.88;;;;;;;2.00;nan;95920.31;4881644;29;20654;-67
2021/01/06 06:54:33;;;;;;;14.73;6.70;;;;;;;1.96;nan;95904.22;4884757;29;20267;-68
2021/01/06 06:57:05;;;;;;;9.57;5.85;;;;;;;2.11;nan;95919.00;4884392;29;20296;-68
2021/01/06 06:59:37;;;;;;;13.57;6.65;;;;;;;2.16;nan;95922.22;4877151;29;20604;-67
2021/01/06 07:02:05;;;;;;;13.68;7.53;;;;;;;2.15;nan;95925.66;4882440;29;20749;-67
2021/01/06 07:04:37;;;;;;;15.00;7.10;;;;;;;2.22;nan;95916.81;4880062;29;20556;-67
2021/01/06 07:07:05;;;;;;;13.00;6.95;;;;;;;2.13;nan;95917.19;4882175;29;20289;-67
2021/01/06 07:09:35;;;;;;;13.57;6.13;;;;;;;2.03;nan;95915.91;4881424;29;20305;-68
2021/01/06 07:12:05;;;;;;;11.93;6.65;;;;;;;1.98;nan;95917.81;4882464;29;20285;-68
2021/01/06 07:14:36;;;;;;;10.93;5.97;;;;;;;2.01;nan;95919.41;4881403;29;20751;-67
2021/01/06 07:17:08;;;;;;;12.90;6.72;;;;;;;2.03;nan;95915.91;4878476;29;20630;-67
2021/01/06 07:19:38;;;;;;;10.25;6.30;;;;;;;2.03;nan;95910.78;4881223;29;20257;-67
2021/01/06 07:22:26;;;;;;;10.27;5.40;;;;;;;2.05;nan;95911.53;4880906;29;20260;-68
2021/01/06 07:24:56;;;;;;;9.13;5.55;;;;;;;2.09;nan;95920.78;4876781;29;20720;-68
2021/01/06 07:27:29;;;;;;;11.68;6.82;;;;;;;2.09;nan;95925.94;4882273;29;20660;-68
2021/01/06 07:29:56;;;;;;;10.05;6.25;;;;;;;2.06;nan;95918.34;4880708;29;20426;-68
2021/01/06 07:32:35;;;;;;;13.10;7.10;;;;;;;2.13;nan;95927.47;4881595;29;20748;-69
2021/01/06 07:35:12;;;;;;;12.32;6.30;;;;;;;2.18;nan;95922.97;4879642;29;20324;-69
2021/01/06 07:37:47;;;;;;;12.60;6.78;;;;;;;2.24;nan;95930.44;4883148;29;20604;-68
2021/01/06 07:40:24;;;;;;;13.43;6.35;;;;;;;2.12;nan;95930.91;4883263;29;20279;-68
2021/01/06 07:42:54;;;;;;;10.65;6.00;;;;;;;2.15;nan;95938.50;4884535;29;20639;-68
2021/01/06 07:45:32;;;;;;;11.07;6.63;;;;;;;2.24;nan;95945.00;4885172;29;20327;-67
2021/01/06 07:48:23;;;;;;;12.20;6.40;;;;;;;2.22;nan;95942.47;4888504;29;20201;-67
2021/01/06 07:50:59;;;;;;;10.55;5.65;;;;;;;2.22;nan;95945.03;4884766;29;20628;-67
2021/01/06 07:53:34;;;;;;;9.23;5.28;;;;;;;2.26;nan;95953.47;4884539;29;20260;-67
2021/01/06 07:56:06;;;;;;;10.63;6.68;;;;;;;2.34;nan;95959.13;4883967;29;20279;-67
2021/01/06 07:58:37;;;;;;;11.30;6.82;;;;;;;2.28;nan;95955.06;4880290;29;20453;-67
2021/01/06 08:01:06;;;;;;;11.55;6.50;;;;;;;2.30;nan;95955.03;4886168;29;20313;-67
2021/01/06 08:03:44;;;;;;;12.82;7.32;;;;;;;2.32;nan;95959.19;4885173;29;20206;-67
2021/01/06 08:06:11;;;;;;;10.73;6.57;;;;;;;2.25;nan;95957.78;4885590;29;20592;-67
2021/01/06 08:09:06;;;;;;;11.50;6.00;;;;;;;2.23;nan;95954.44;4886016;29;20209;-67
2021/01/06 08:11:45;;;;;;;13.98;7.00;;;;;;;2.33;nan;95960.88;4883085;29;20292;-68
2021/01/06 08:14:21;;;;;;;10.30;5.55;;;;;;;2.31;nan;95960.09;4883907;29;20583;-67
2021/01/06 08:16:54;;;;;;;10.77;6.40;;;;;;;2.32;nan;95959.19;4885063;29;20652;-67
2021/01/06 08:19:27;;;;;;;11.32;6.50;;;;;;;2.33;nan;95955.72;4885043;29;20228;-69
2021/01/06 08:22:03;;;;;;;14.95;7.60;;;;;;;2.37;nan;95959.81;4884988;29;20869;-67
2021/01/06 08:24:41;;;;;;;11.80;7.10;;;;;;;2.25;nan;95962.91;4883287;29;20329;-67
2021/01/06 08:27:15;;;;;;;13.20;6.25;;;;;;;2.31;nan;95966.94;4877216;29;20641;-67
2021/01/06 08:29:41;;;;;;;9.98;5.95;;;;;;;2.39;nan;95960.63;4883911;29;20292;-68
2021/01/06 08:32:23;;;;;;;10.75;6.00;;;;;;;2.41;nan;95961.38;4883523;29;20724;-67
2021/01/06 08:34:57;;;;;;;10.63;6.22;;;;;;;2.40;nan;95962.28;4882652;29;20621;-67
2021/01/06 08:37:35;;;;;;;11.80;6.47;;;;;;;2.49;nan;95966.22;4883933;29;20581;-68
2021/01/06 08:40:06;;;;;;;8.00;5.45;;;;;;;2.49;nan;95967.03;4884242;29;20312;-67
2021/01/06 08:42:41;;;;;;;9.80;5.50;;;;;;;2.38;nan;95969.22;4884666;29;20259;-67
2021/01/06 08:45:20;;;;;;;8.73;5.50;;;;;;;2.50;nan;95971.28;4891998;29;20633;-67
2021/01/06 08:47:48;;;;;;;8.32;5.45;;;;;;;2.46;nan;95985.16;4883213;29;20197;-67
2021/01/06 08:50:27;;;;;;;7.78;4.93;;;;;;;2.43;nan;95977.56;4883784;29;20808;-66
2021/01/06 08:52:56;;;;;;;8.93;5.85;;;;;;;2.46;nan;95977.44;4882950;29;20292;-67
2021/01/06 08:55:26;;;;;;;11.75;5.78;;;;;;;2.54;nan;95977.97;4883090;29;20897;-67
2021/01/06 08:58:02;;;;;;;61.65;28.75;;;;;;;2.58;nan;95971.78;4883468;29;20214;-67
2021/01/06 09:00:33;;;;;;;16.63;7.65;;;;;;;2.51;nan;95967.81;4879510;29;20572;-67
2021/01/06 09:03:09;;;;;;;10.90;5.80;;;;;;;2.45;nan;95975.78;4883326;29;20642;-67
2021/01/06 09:05:58;;;;;;;7.68;4.90;;;;;;;2.38;nan;95979.50;4880050;29;20236;-67
2021/01/06 09:08:29;;;;;;;9.10;5.03;;;;;;;2.33;nan;95976.28;4883778;29;20547;-67
2021/01/06 09:11:10;;;;;;;7.50;4.38;;;;;;;2.40;nan;95977.69;4884909;29;20678;-67
2021/01/06 09:13:40;;;;;;;5.07;4.10;;;;;;;2.40;nan;95975.13;4879221;29;20289;-67
2021/01/06 09:16:13;;;;;;;7.85;4.97;;;;;;;2.34;nan;95974.53;4882941;29;20269;-67
2021/01/06 09:18:55;;;;;;;7.55;4.53;;;;;;;2.40;nan;95985.41;4883122;29;20662;-68
2021/01/06 09:21:29;;;;;;;6.00;4.20;;;;;;;2.40;nan;95985.41;4884524;29;20743;-68
2021/01/06 09:24:15;;;;;;;5.90;4.88;;;;;;;2.42;nan;95986.16;4892439;29;20296;-67
2021/01/06 09:26:46;;;;;;;11.05;5.00;;;;;;;2.55;nan;95989.91;4884593;29;20534;-68
2021/01/06 09:29:17;;;;;;;9.50;4.80;;;;;;;2.54;nan;95995.94;4883084;29;20788;-68
2021/01/06 09:31:47;;;;;;;8.93;4.88;;;;;;;2.61;nan;96002.50;4882497;29;20202;-67
2021/01/06 09:34:18;;;;;;;8.18;4.82;;;;;;;2.65;nan;95990.38;4883456;29;20779;-68
2021/01/06 09:37:19;;;;;;;11.45;6.72;;;;;;;2.67;nan;95994.56;4883988;29;20246;-68
2021/01/06 09:39:48;;;;;;;8.57;5.18;;;;;;;2.66;nan;95992.84;4882904;29;20332;-68
2021/01/06 09:42:18;;;;;;;8.60;5.28;;;;;;;2.65;nan;96000.66;4878198;29;20497;-67
2021/01/06 09:44:45;;;;;;;8.43;4.75;;;;;;;2.59;nan;95993.19;4882653;29;20669;-68
2021/01/06 09:47:22;;;;;;;12.52;5.53;;;;;;;2.59;nan;95998.31;4887957;29;20288;-66
2021/01/06 09:49:54;;;;;;;14.57;5.97;;;;;;;2.58;nan;95994.91;4885009;29;20662;-66
2021/01/06 09:52:28;;;;;;;8.27;5.75;;;;;;;2.63;nan;95992.16;4882517;29;20512;-67
2021/01/06 09:54:57;;;;;;;10.32;6.28;;;;;;;2.69;nan;96000.47;4882207;29;20230;-66
2021/01/06 09:57:27;;;;;;;11.23;6.63;;;;;;;2.65;nan;95998.91;4885013;29;20210;-66
2021/01/06 10:00:02;;;;;;;8.98;5.72;;;;;;;2.77;nan;95998.41;4886270;29;20233;-67
2021/01/06 10:02:32;;;;;;;12.27;7.97;;;;;;;2.78;nan;96000.06;4879249;29;20201;-66
2021/01/06 10:05:06;;;;;;;12.18;6.82;;;;;;;2.73;nan;95996.03;4883756;29;20258;-67
2021/01/06 10:07:43;;;;;;;11.90;6.25;;;;;;;2.75;nan;96000.22;4878538;29;20201;-66
2021/01/06 10:10:14;;;;;;;11.20;7.05;;;;;;;2.80;nan;95993.13;4881671;29;20299;-67
2021/01/06 10:12:54;;;;;;;8.85;5.85;;;;;;;2.71;nan;95998.66;4882310;29;20198;-67
2021/01/06 10:15:32;;;;;;;10.45;6.10;;;;;;;2.69;nan;95995.31;4881247;29;20283;-67
2021/01/06 10:18:15;;;;;;;9.65;6.10;;;;;;;2.61;nan;95994.81;4882684;29;20621;-67
2021/01/06 10:20:49;;;;;;;7.63;4.80;;;;;;;2.52;nan;95990.06;4878829;29;20314;-67
2021/01/06 10:23:35;;;;;;;10.57;5.05;;;;;;;2.58;nan;95991.53;4880799;29;20201;-66
2021/01/06 10:26:16;;;;;;;8.32;5.28;;;;;;;2.70;nan;95997.00;4883230;29;20313;-66
2021/01/06 10:28:48;;;;;;;14.98;5.78;;;;;;;2.73;nan;95988.31;4879369;29;20202;-66
2021/01/06 10:31:19;;;;;;;9.38;5.32;;;;;;;2.68;nan;95988.53;4883751;29;20305;-66
2021/01/06 10:34:05;;;;;;;8.90;5.75;;;;;;;2.72;nan;95992.63;4882284;29;20691;-67
2021/01/06 10:36:54;;;;;;;13.23;6.57;;;;;;;2.59;nan;95993.19;4877112;29;20646;-66
2021/01/06 10:39:26;;;;;;;9.27;6.10;;;;;;;2.71;nan;95996.09;4876506;29;20253;-68
2021/01/06 10:42:01;;;;;;;11.45;6.53;;;;;;;2.62;nan;95995.63;4883124;29;20568;-67
2021/01/06 10:44:30;;;;;;;7.55;5.53;;;;;;;2.54;nan;95990.81;4880786;29;20229;-67
2021/01/06 10:47:27;;;;;;;9.48;6.25;;;;;;;2.56;nan;95999.28;4884020;29;20314;-67
2021/01/06 10:49:58;;;;;;;12.20;6.40;;;;;;;2.66;nan;95987.72;4884604;29;20237;-68
2021/01/06 10:52:30;;;;;;;13.60;8.40;;;;;;;2.61;nan;95986.25;4881364;29;20325;-66
2021/01/06 10:55:16;;;;;;;30.00;14.75;;;;;;;2.54;nan;95980.53;4882194;29;20317;-67
2021/01/06 10:57:49;;;;;;;9.85;6.10;;;;;;;2.48;nan;95980.78;4879648;29;20210;-66
2021/01/06 11:00:21;;;;;;;10.02;7.10;;;;;;;2.51;nan;95980.66;4881024;29;20784;-67
2021/01/06 11:03:47;;;;;;;13.52;7.20;;;;;;;2.38;nan;95979.50;4882064;29;20636;-67
2021/01/06 11:06:23;;;;;;;10.38;6.68;;;;;;;2.53;nan;95978.03;4861823;29;20460;-69
2021/01/06 11:09:12;;;;;;;8.65;5.82;;;;;;;2.63;nan;95976.75;4858378;29;20661;-67
2021/01/06 11:12:14;;;;;;;15.07;7.68;;;;;;;2.48;nan;95973.09;4856822;29;20210;-68
2021/01/06 11:15:22;;;;;;;12.15;6.65;;;;;;;2.42;nan;95975.06;4855864;29;20382;-67
2021/01/06 11:18:12;;;;;;;9.70;6.05;;;;;;;2.47;nan;95978.28;4857373;29;20230;-67
2021/01/06 11:20:41;;;;;;;12.80;7.68;;;;;;;2.54;nan;95974.56;4857205;29;20248;-67
2021/01/06 11:23:33;;;;;;;12.40;7.82;;;;;;;2.57;nan;95977.84;4860129;29;20262;-67
2021/01/06 11:26:02;;;;;;;13.25;7.47;;;;;;;2.55;nan;95971.94;4859786;29;20603;-67
2021/01/06 11:28:41;;;;;;;12.68;7.22;;;;;;;2.57;nan;95970.13;4854773;29;20710;-67
2021/01/06 11:31:27;;;;;;;13.75;7.63;;;;;;;2.60;nan;95972.59;4859914;29;20632;-67
2021/01/06 11:33:56;;;;;;;14.32;7.07;;;;;;;2.56;nan;95967.66;4860789;29;20230;-66
2021/01/06 11:36:44;;;;;;;38.33;18.35;;;;;;;2.60;nan;95969.19;4867625;29;20257;-67
2021/01/06 11:39:15;;;;;;;20.35;10.68;;;;;;;2.56;nan;95963.34;4881866;29;20226;-66
2021/01/06 11:42:04;;;;;;;11.63;6.25;;;;;;;2.64;nan;95965.59;4886335;29;20629;-67
2021/01/06 11:44:35;;;;;;;15.18;7.55;;;;;;;2.52;nan;95954.09;4876333;29;20615;-67
2021/01/06 11:47:19;;;;;;;11.32;7.03;;;;;;;2.48;nan;95959.41;4879145;29;20276;-67
2021/01/06 11:50:07;;;;;;;10.60;6.20;;;;;;;2.52;nan;95954.09;4879013;29;20247;-67
2021/01/06 11:52:39;;;;;;;10.23;6.65;;;;;;;2.35;nan;95958.25;4880896;29;20682;-67
2021/01/06 11:55:22;;;;;;;13.13;7.90;;;;;;;2.31;nan;95952.41;4880047;29;20570;-67
2021/01/06 11:57:58;;;;;;;19.08;7.60;;;;;;;2.45;nan;95952.69;4880884;29;20211;-67
2021/01/06 12:00:47;;;;;;;14.20;7.40;;;;;;;2.36;nan;95955.59;4885024;29;20315;-67
2021/01/06 12:03:26;;;;;;;11.05;6.63;;;;;;;2.44;nan;95956.13;4879874;29;20316;-67
2021/01/06 12:06:06;;;;;;;11.88;6.70;;;;;;;2.47;nan;95943.16;4879607;29;20229;-66
2021/01/06 12:08:52;;;;;;;10.82;6.85;;;;;;;2.44;nan;95942.47;4877199;29;20717;-66
2021/01/06 12:11:27;;;;;;;9.73;6.47;;;;;;;2.43;nan;95945.94;4880203;29;20293;-66
2021/01/06 12:14:13;;;;;;;13.70;6.82;;;;;;;2.48;nan;95944.00;4882799;29;20741;-66
2021/01/06 12:16:45;;;;;;;11.32;6.30;;;;;;;2.44;nan;95939.91;4880306;29;20603;-66
2021/01/06 12:19:28;;;;;;;10.02;5.35;;;;;;;2.50;nan;95945.59;4886780;29;20249;-66
2021/01/06 12:22:14;;;;;;;10.77;6.53;;;;;;;2.65;nan;95944.16;4880633;29;20300;-66
2021/01/06 12:24:45;;;;;;;10.80;5.90;;;;;;;2.67;nan;95943.19;4881011;29;20421;-68
2021/01/06 12:27:34;;;;;;;7.90;4.80;;;;;;;2.52;nan;95940.41;4885097;29;20230;-68
2021/01/06 12:30:23;;;;;;;8.13;5.28;;;;;;;2.50;nan;95940.47;4883609;29;20745;-68